Map

Track Data

SID SEASON NUMBER BASIN SUBBASIN NAME ISO_TIME NATURE LAT LON WMO_WIND WMO_PRES WMO_AGENCY TRACK_TYPE DIST2LAND LANDFALL IFLAG USA_AGENCY USA_ATCF_ID USA_LAT USA_LON USA_RECORD USA_STATUS USA_WIND USA_PRES USA_SSHS USA_R34_NE USA_R34_SE USA_R34_SW USA_R34_NW USA_R50_NE USA_R50_SE USA_R50_SW USA_R50_NW USA_R64_NE USA_R64_SE USA_R64_SW USA_R64_NW USA_POCI USA_ROCI USA_RMW USA_EYE TOKYO_LAT TOKYO_LON TOKYO_GRADE TOKYO_WIND TOKYO_PRES TOKYO_R50_DIR TOKYO_R50_LONG TOKYO_R50_SHORT TOKYO_R30_DIR TOKYO_R30_LONG TOKYO_R30_SHORT TOKYO_LAND CMA_LAT CMA_LON CMA_CAT CMA_WIND CMA_PRES HKO_LAT HKO_LON HKO_CAT HKO_WIND HKO_PRES NEWDELHI_LAT NEWDELHI_LON NEWDELHI_GRADE NEWDELHI_WIND NEWDELHI_PRES NEWDELHI_CI NEWDELHI_DP NEWDELHI_POCI REUNION_LAT REUNION_LON REUNION_TYPE REUNION_WIND REUNION_PRES REUNION_TNUM REUNION_CI REUNION_RMW REUNION_R34_NE REUNION_R34_SE REUNION_R34_SW REUNION_R34_NW REUNION_R50_NE REUNION_R50_SE REUNION_R50_SW REUNION_R50_NW REUNION_R64_NE REUNION_R64_SE REUNION_R64_SW REUNION_R64_NW BOM_LAT BOM_LON BOM_TYPE BOM_WIND BOM_PRES BOM_TNUM BOM_CI BOM_RMW BOM_R34_NE BOM_R34_SE BOM_R34_SW BOM_R34_NW BOM_R50_NE BOM_R50_SE BOM_R50_SW BOM_R50_NW BOM_R64_NE BOM_R64_SE BOM_R64_SW BOM_R64_NW BOM_ROCI BOM_POCI BOM_EYE BOM_POS_METHOD BOM_PRES_METHOD NADI_LAT NADI_LON NADI_CAT NADI_WIND NADI_PRES WELLINGTON_LAT WELLINGTON_LON WELLINGTON_WIND WELLINGTON_PRES DS824_LAT DS824_LON DS824_STAGE DS824_WIND DS824_PRES TD9636_LAT TD9636_LON TD9636_STAGE TD9636_WIND TD9636_PRES TD9635_LAT TD9635_LON TD9635_WIND TD9635_PRES TD9635_ROCI NEUMANN_LAT NEUMANN_LON NEUMANN_CLASS NEUMANN_WIND NEUMANN_PRES MLC_LAT MLC_LON MLC_CLASS MLC_WIND MLC_PRES USA_GUST BOM_GUST BOM_GUST_PER REUNION_GUST REUNION_GUST_PER USA_SEAHGT USA_SEARAD_NE USA_SEARAD_SE USA_SEARAD_SW USA_SEARAD_NW STORM_SPEED STORM_DIR
1971219N26276 1971 87 NA GM NOT_NAMED 1971-08-06 12:00:00 TS 25.5000 -84.5000 20 hurdat_atl main 263 263 O_____________ hurdat_atl AL051971 25.5000 -84.5000 TD 20 -1 4 318
1971219N26276 1971 87 NA GM NOT_NAMED 1971-08-06 15:00:00 TS 25.6400 -84.6400 main 265 265 P_____________ AL051971 25.6400 -84.6400 TD 22 -1 4 318
1971219N26276 1971 87 NA GM NOT_NAMED 1971-08-06 18:00:00 TS 25.8000 -84.8000 25 hurdat_atl main 272 272 O_____________ hurdat_atl AL051971 25.8000 -84.8000 TD 25 -1 5 318
1971219N26276 1971 87 NA GM NOT_NAMED 1971-08-06 21:00:00 TS 25.9925 -84.9925 main 279 279 P_____________ AL051971 25.9925 -84.9925 TD 25 -1 5 318
1971219N26276 1971 87 NA GM NOT_NAMED 1971-08-07 00:00:00 TS 26.2000 -85.2000 25 hurdat_atl main 285 285 O_____________ hurdat_atl AL051971 26.2000 -85.2000 TD 25 -1 5 318
1971219N26276 1971 87 NA GM NOT_NAMED 1971-08-07 03:00:00 TS 26.4000 -85.4001 main 295 295 P_____________ AL051971 26.4000 -85.4001 TD 25 -1 5 318
1971219N26276 1971 87 NA GM NOT_NAMED 1971-08-07 06:00:00 TS 26.6000 -85.6000 25 hurdat_atl main 303 302 O_____________ hurdat_atl AL051971 26.6000 -85.6000 TD 25 -1 5 320
1971219N26276 1971 87 NA GM NOT_NAMED 1971-08-07 09:00:00 TS 26.8149 -85.7925 main 311 305 P_____________ AL051971 26.8149 -85.7925 TD 25 -1 5 318
1971219N26276 1971 87 NA GM NOT_NAMED 1971-08-07 12:00:00 TS 27.0000 -86.0000 25 hurdat_atl main 307 298 O_____________ hurdat_atl AL051971 27.0000 -86.0000 TD 25 -1 5 306
1971219N26276 1971 87 NA GM NOT_NAMED 1971-08-07 15:00:00 TS 27.1075 -86.2427 main 300 295 P_____________ AL051971 27.1075 -86.2427 TD 25 -1 5 294
1971219N26276 1971 87 NA GM NOT_NAMED 1971-08-07 18:00:00 TS 27.2000 -86.5000 25 hurdat_atl main 299 292 O_____________ hurdat_atl AL051971 27.2000 -86.5000 TD 25 -1 5 298
1971219N26276 1971 87 NA GM NOT_NAMED 1971-08-07 21:00:00 TS 27.3425 -86.7500 main 294 264 P_____________ AL051971 27.3425 -86.7500 TD 25 -1 5 304
1971219N26276 1971 87 NA GM NOT_NAMED 1971-08-08 00:00:00 TS 27.5000 -87.0000 25 hurdat_atl main 264 242 O_____________ hurdat_atl AL051971 27.5000 -87.0000 TD 25 -1 5 305
1971219N26276 1971 87 NA GM NOT_NAMED 1971-08-08 03:00:00 TS 27.6575 -87.2500 main 228 205 P_____________ AL051971 27.6575 -87.2500 TD 25 -1 5 304
1971219N26276 1971 87 NA GM NOT_NAMED 1971-08-08 06:00:00 TS 27.8000 -87.5000 25 hurdat_atl main 205 183 O_____________ hurdat_atl AL051971 27.8000 -87.5000 TD 25 -1 5 297
1971219N26276 1971 87 NA GM NOT_NAMED 1971-08-08 09:00:00 TS 27.8774 -87.7429 main 183 154 P_____________ AL051971 27.8774 -87.7429 TD 25 -1 5 294
1971219N26276 1971 87 NA GM NOT_NAMED 1971-08-08 12:00:00 TS 28.0000 -88.0000 25 hurdat_atl main 154 110 O_____________ hurdat_atl AL051971 28.0000 -88.0000 TD 25 -1 6 309
1971219N26276 1971 87 NA GM NOT_NAMED 1971-08-08 15:00:00 TS 28.2700 -88.2924 main 110 66 P_____________ AL051971 28.2700 -88.2924 TD 25 -1 8 319
1971219N26276 1971 87 NA GM NOT_NAMED 1971-08-08 18:00:00 TS 28.6000 -88.6000 25 hurdat_atl main 66 22 O_____________ hurdat_atl AL051971 28.6000 -88.6000 TD 25 -1 8 320
1971219N26276 1971 87 NA GM NOT_NAMED 1971-08-08 21:00:00 TS 28.8999 -88.9002 main 22 0 P_____________ AL051971 28.8999 -88.9002 TD 25 -1 8 319
1971219N26276 1971 87 NA NA NOT_NAMED 1971-08-09 00:00:00 TS 29.2000 -89.2000 25 hurdat_atl main 0 0 O_____________ hurdat_atl AL051971 29.2000 -89.2000 TD 25 -1 8 319
1971219N26276 1971 87 NA GM NOT_NAMED 1971-08-09 03:00:00 TS 29.4924 -89.4928 main 0 0 P_____________ AL051971 29.4924 -89.4928 TD 25 -1 8 319
1971219N26276 1971 87 NA NA NOT_NAMED 1971-08-09 06:00:00 TS 29.8000 -89.8000 25 hurdat_atl main 0 0 O_____________ hurdat_atl AL051971 29.8000 -89.8000 TD 25 -1 9 319
1971219N26276 1971 87 NA GM NOT_NAMED 1971-08-09 09:00:00 TS 30.1402 -90.1394 main 9 0 P_____________ AL051971 30.1402 -90.1394 TD -1 9 319
1971219N26276 1971 87 NA NA NOT_NAMED 1971-08-09 12:00:00 TS 30.5000 -90.5000 hurdat_atl main 0 O_____________ hurdat_atl AL051971 30.5000 -90.5000 TD -1 10 319

About IBTrACS Database

This database is a web-friendly format of International Best Track Archive for Climate Stewardship (IBTrACS), a global best track data archive curated by NOAA dating back to 1842.

Updated: 2021-10-19